Time;durP1;ratioP1;P1;durP2;ratioP2;P2;SDS_P1;SDS_P2;PMS_P1;PMS_P2;Temp;Humidity;BMP_temperature;BMP_pressure;BME280_temperature;BME280_humidity;BME280_pressure;Samples;Min_cycle;Max_cycle;Signal;HPM_P1;HPM_P2
2022/10/03 00:01:57;;;;;;;43.00;24.83;;;10.40;99.90;;;;;;5116502;28;20192;-71
2022/10/03 00:04:40;;;;;;;39.70;25.00;;;10.40;99.90;;;;;;5109462;27;20252;-71
2022/10/03 00:07:22;;;;;;;42.03;24.30;;;10.40;99.90;;;;;;5116208;28;20543;-71
2022/10/03 00:10:00;;;;;;;47.60;25.17;;;10.40;99.90;;;;;;5116307;28;20330;-71
2022/10/03 00:12:47;;;;;;;43.13;26.13;;;10.30;99.90;;;;;;5116286;28;20195;-71
2022/10/03 00:15:20;;;;;;;41.00;25.07;;;10.30;99.90;;;;;;5116309;28;20445;-71
2022/10/03 00:17:56;;;;;;;48.27;26.33;;;10.30;99.90;;;;;;5116489;28;20734;-71
2022/10/03 00:20:46;;;;;;;47.77;25.87;;;10.30;99.90;;;;;;5116154;28;20207;-71
2022/10/03 00:23:21;;;;;;;47.37;26.07;;;10.30;99.90;;;;;;5115749;28;20605;-71
2022/10/03 00:25:55;;;;;;;49.77;26.83;;;10.30;99.90;;;;;;5116068;28;20582;-71
2022/10/03 00:28:49;;;;;;;41.17;24.97;;;10.30;99.90;;;;;;5115975;28;20397;-71
2022/10/03 00:31:19;;;;;;;43.83;25.70;;;10.30;99.90;;;;;;5115669;28;20571;-71
2022/10/03 00:34:02;;;;;;;45.40;24.97;;;10.30;99.90;;;;;;5115789;28;20196;-71
2022/10/03 00:36:42;;;;;;;43.87;25.37;;;10.40;99.90;;;;;;5115681;28;20199;-71
2022/10/03 00:39:27;;;;;;;40.70;24.07;;;10.40;99.90;;;;;;5115987;28;20201;-71
2022/10/03 00:42:39;;;;;;;43.60;24.90;;;10.40;99.90;;;;;;5115587;28;20195;-71
2022/10/03 00:45:37;;;;;;;49.27;25.23;;;10.40;99.90;;;;;;5115635;28;20195;-71
2022/10/03 00:48:45;;;;;;;42.97;25.50;;;10.40;99.90;;;;;;5115448;28;20245;-71
2022/10/03 00:51:30;;;;;;;50.87;26.43;;;10.40;99.90;;;;;;5032486;28;20206;-71
2022/10/03 00:54:11;;;;;;;51.70;25.97;;;10.40;99.90;;;;;;5106286;28;20203;-71
2022/10/03 00:57:02;;;;;;;47.33;26.27;;;10.40;99.90;;;;;;5115277;28;20203;-71
2022/10/03 00:59:44;;;;;;;46.20;24.90;;;10.40;99.90;;;;;;5115706;28;20287;-71
2022/10/03 01:02:31;;;;;;;45.13;25.97;;;10.40;99.90;;;;;;5115360;28;20199;-71
2022/10/03 01:05:11;;;;;;;47.57;26.40;;;10.40;99.90;;;;;;5115144;28;20199;-71
2022/10/03 01:08:00;;;;;;;45.63;26.77;;;10.40;99.90;;;;;;5115232;28;20662;-71
2022/10/03 01:10:35;;;;;;;45.03;26.67;;;10.40;99.90;;;;;;5114384;28;20195;-71
2022/10/03 01:13:20;;;;;;;49.73;27.00;;;10.40;99.90;;;;;;5115114;28;20228;-71
2022/10/03 01:15:52;;;;;;;44.03;26.93;;;10.40;99.90;;;;;;5114835;28;20212;-71
2022/10/03 01:18:36;;;;;;;46.67;26.23;;;10.40;99.90;;;;;;5115080;28;20200;-71
2022/10/03 01:21:12;;;;;;;44.80;26.70;;;10.40;99.90;;;;;;5115015;28;20207;-71
2022/10/03 01:23:58;;;;;;;49.50;26.37;;;10.40;99.90;;;;;;5114695;28;20231;-71
2022/10/03 01:26:50;;;;;;;44.70;26.17;;;10.40;99.90;;;;;;5111873;28;20200;-71
2022/10/03 01:32:17;;;;;;;45.17;25.70;;;10.40;99.90;;;;;;5114680;28;20673;-71
2022/10/03 01:34:48;;;;;;;42.17;24.93;;;10.40;99.90;;;;;;5114457;28;20196;-71
2022/10/03 01:37:24;;;;;;;39.20;23.77;;;10.40;99.90;;;;;;5114665;28;20210;-71
2022/10/03 01:39:55;;;;;;;46.63;24.43;;;10.40;99.90;;;;;;5114702;28;20199;-72
2022/10/03 01:42:35;;;;;;;41.73;24.53;;;10.40;99.90;;;;;;5114645;28;20204;-71
2022/10/03 01:45:13;;;;;;;42.40;23.77;;;10.40;99.90;;;;;;5114271;28;20195;-71
2022/10/03 01:47:50;;;;;;;42.30;23.47;;;10.40;99.90;;;;;;5114226;28;20559;-71
2022/10/03 01:50:27;;;;;;;45.43;26.33;;;10.40;99.90;;;;;;5114082;28;20686;-71
2022/10/03 01:53:02;;;;;;;41.37;24.70;;;10.40;99.90;;;;;;5114248;28;20233;-71
2022/10/03 01:55:37;;;;;;;36.93;24.23;;;10.40;99.90;;;;;;5114133;28;20225;-71
2022/10/03 01:58:09;;;;;;;38.37;24.63;;;10.40;99.90;;;;;;5114276;28;20195;-71
2022/10/03 02:00:47;;;;;;;40.87;25.80;;;10.40;99.90;;;;;;5113940;28;20673;-71
2022/10/03 02:03:21;;;;;;;39.40;23.83;;;10.40;99.90;;;;;;5113993;28;20658;-71
2022/10/03 02:05:54;;;;;;;38.87;24.17;;;10.40;99.90;;;;;;5113892;28;20289;-71
2022/10/03 02:08:30;;;;;;;40.20;23.57;;;10.40;99.90;;;;;;5114004;28;20203;-71
2022/10/03 02:11:02;;;;;;;41.07;22.50;;;10.40;99.90;;;;;;5113932;28;20195;-71
2022/10/03 02:13:40;;;;;;;35.87;23.07;;;10.30;99.90;;;;;;5113736;28;20214;-72
2022/10/03 02:16:16;;;;;;;40.63;23.00;;;10.40;99.90;;;;;;5113683;28;20656;-72
2022/10/03 02:18:47;;;;;;;36.53;22.93;;;10.30;99.90;;;;;;5113897;28;20203;-72
2022/10/03 02:21:20;;;;;;;44.90;24.57;;;10.30;99.90;;;;;;5112660;28;20536;-72
2022/10/03 02:23:48;;;;;;;36.07;22.90;;;10.30;99.90;;;;;;5113472;28;20263;-72
2022/10/03 02:26:43;;;;;;;37.00;23.37;;;10.30;99.90;;;;;;5113599;28;20199;-72
2022/10/03 02:29:39;;;;;;;39.57;23.53;;;10.30;99.90;;;;;;5113570;28;20743;-72
2022/10/03 02:32:39;;;;;;;35.73;24.40;;;10.30;99.90;;;;;;5070827;28;20207;-72
2022/10/03 02:35:32;;;;;;;35.93;24.67;;;10.30;99.90;;;;;;5077051;28;20207;-72
2022/10/03 02:38:18;;;;;;;36.87;23.00;;;10.30;99.90;;;;;;5065725;28;20286;-72
2022/10/03 02:41:17;;;;;;;37.97;23.53;;;10.30;99.90;;;;;;5110924;28;20200;-72
2022/10/03 02:44:19;;;;;;;34.77;23.20;;;10.30;99.90;;;;;;5111050;28;20204;-72
2022/10/03 02:47:23;;;;;;;39.27;21.77;;;10.30;99.90;;;;;;5110864;28;20668;-72
2022/10/03 02:50:32;;;;;;;42.97;23.60;;;10.30;99.90;;;;;;5110325;28;20226;-72
2022/10/03 02:53:25;;;;;;;35.50;23.53;;;10.30;99.90;;;;;;5110820;28;20206;-72
2022/10/03 02:56:31;;;;;;;41.13;23.27;;;10.30;99.90;;;;;;5110865;28;20196;-72
2022/10/03 02:59:30;;;;;;;39.00;22.57;;;10.20;99.90;;;;;;5110919;28;20659;-72
2022/10/03 03:02:17;;;;;;;33.43;21.77;;;10.20;99.90;;;;;;5110485;28;20675;-72
2022/10/03 03:05:24;;;;;;;36.73;22.80;;;10.20;99.90;;;;;;5110875;28;20207;-72
2022/10/03 03:08:20;;;;;;;35.87;22.10;;;10.20;99.90;;;;;;5110633;28;20202;-72
2022/10/03 03:11:17;;;;;;;38.10;21.93;;;10.20;99.90;;;;;;5073587;28;20235;-72
2022/10/03 03:14:18;;;;;;;35.40;21.40;;;10.20;99.90;;;;;;5081639;28;20202;-72
2022/10/03 03:17:01;;;;;;;31.57;21.63;;;10.20;99.90;;;;;;5104795;28;20230;-72
2022/10/03 03:19:41;;;;;;;43.97;23.07;;;10.10;99.90;;;;;;5110630;28;20288;-72
2022/10/03 03:22:20;;;;;;;31.80;21.23;;;10.10;99.90;;;;;;5110270;28;20311;-70
2022/10/03 03:25:05;;;;;;;33.27;20.83;;;10.10;99.90;;;;;;5110188;28;20199;-71
2022/10/03 03:27:47;;;;;;;36.93;21.30;;;10.10;99.90;;;;;;5110287;28;20646;-70
2022/10/03 03:30:18;;;;;;;32.77;21.33;;;10.10;99.90;;;;;;5110972;28;20344;-70
2022/10/03 03:33:03;;;;;;;35.27;21.90;;;10.10;99.90;;;;;;5114553;28;20241;-70
2022/10/03 03:35:49;;;;;;;32.83;20.90;;;10.10;99.90;;;;;;5115919;28;20244;-70
2022/10/03 03:38:29;;;;;;;37.67;21.67;;;10.10;99.90;;;;;;5116745;28;20666;-70
2022/10/03 03:41:12;;;;;;;36.20;20.40;;;10.00;99.90;;;;;;5116825;28;20203;-70
2022/10/03 03:44:04;;;;;;;35.43;21.57;;;10.00;99.90;;;;;;5116734;28;20286;-71
2022/10/03 03:46:40;;;;;;;35.63;21.77;;;10.00;99.90;;;;;;5116895;28;20225;-70
2022/10/03 03:49:30;;;;;;;37.40;22.80;;;10.00;99.90;;;;;;5116475;28;20268;-70
2022/10/03 03:52:10;;;;;;;33.17;22.20;;;9.90;99.90;;;;;;5116447;28;20253;-70
2022/10/03 03:55:02;;;;;;;36.40;21.93;;;9.90;99.90;;;;;;5116665;28;20245;-70
2022/10/03 03:57:43;;;;;;;31.53;21.60;;;9.90;99.90;;;;;;5116571;28;20249;-70
2022/10/03 04:00:15;;;;;;;36.10;22.83;;;9.90;99.90;;;;;;5116345;28;20608;-71
2022/10/03 04:03:00;;;;;;;35.80;22.03;;;9.90;99.90;;;;;;5116329;28;20715;-71
2022/10/03 04:05:37;;;;;;;35.67;22.33;;;9.90;99.90;;;;;;5116419;28;20237;-73
2022/10/03 04:08:25;;;;;;;34.07;21.50;;;9.90;99.90;;;;;;5116171;28;20543;-71
2022/10/03 04:11:01;;;;;;;39.33;22.17;;;9.90;99.90;;;;;;5116051;28;20230;-71
2022/10/03 04:13:47;;;;;;;32.20;20.13;;;9.90;99.90;;;;;;5116144;28;20200;-71
2022/10/03 04:19:32;;;;;;;31.40;20.00;;;9.80;99.90;;;;;;5116103;28;20197;-71
2022/10/03 04:22:17;;;;;;;32.13;20.60;;;9.80;99.90;;;;;;5115950;28;20206;-71
2022/10/03 04:25:23;;;;;;;30.27;19.70;;;9.80;99.90;;;;;;5115962;28;20211;-71
2022/10/03 04:28:14;;;;;;;32.70;20.63;;;9.80;99.90;;;;;;5075638;28;20720;-71
2022/10/03 04:30:58;;;;;;;32.00;19.87;;;9.80;99.90;;;;;;5115813;28;20629;-71
2022/10/03 04:33:36;;;;;;;36.70;20.83;;;9.80;99.90;;;;;;5115770;28;20647;-71
2022/10/03 04:36:39;;;;;;;31.57;19.60;;;9.70;99.90;;;;;;5115953;28;20198;-71
2022/10/03 04:39:16;;;;;;;33.53;20.53;;;9.80;99.90;;;;;;5115767;28;20203;-71
2022/10/03 04:41:51;;;;;;;31.83;21.23;;;9.70;99.90;;;;;;5115895;28;20195;-71
2022/10/03 04:44:38;;;;;;;32.87;20.00;;;9.80;99.90;;;;;;5114363;28;20203;-72
2022/10/03 04:47:15;;;;;;;34.23;19.87;;;9.70;99.90;;;;;;5115729;28;20272;-71
2022/10/03 04:49:50;;;;;;;33.87;19.77;;;9.70;99.90;;;;;;5115497;28;20258;-71
2022/10/03 04:52:21;;;;;;;36.17;20.63;;;9.70;99.90;;;;;;5115338;28;20198;-72
2022/10/03 04:54:56;;;;;;;35.07;20.50;;;9.70;99.90;;;;;;5115333;28;20286;-71
2022/10/03 04:57:35;;;;;;;32.90;21.57;;;9.70;99.90;;;;;;5115306;28;20597;-71
2022/10/03 05:00:13;;;;;;;33.07;20.60;;;9.60;99.90;;;;;;5115225;28;20659;-71
2022/10/03 05:02:53;;;;;;;34.93;20.87;;;9.60;99.90;;;;;;5115217;28;20557;-71
2022/10/03 05:05:45;;;;;;;32.63;20.73;;;9.60;99.90;;;;;;5115317;28;20200;-71
2022/10/03 05:08:28;;;;;;;30.20;20.70;;;9.50;99.90;;;;;;5115174;28;20634;-71
2022/10/03 05:11:06;;;;;;;33.70;20.10;;;9.50;99.90;;;;;;5115046;28;20261;-71
2022/10/03 05:13:46;;;;;;;34.83;20.57;;;9.50;99.90;;;;;;5115044;28;20203;-72
2022/10/03 05:16:21;;;;;;;35.43;20.53;;;9.50;99.90;;;;;;5114941;28;20193;-71
2022/10/03 05:18:55;;;;;;;33.93;21.50;;;9.50;99.90;;;;;;5114912;28;20230;-72
2022/10/03 05:21:33;;;;;;;33.90;21.07;;;9.50;99.90;;;;;;5114850;28;20199;-71
2022/10/03 05:24:09;;;;;;;34.43;21.10;;;9.50;99.90;;;;;;5114675;28;20231;-72
2022/10/03 05:26:44;;;;;;;36.53;22.17;;;9.40;99.90;;;;;;5114715;28;20199;-71
2022/10/03 05:29:20;;;;;;;37.20;20.93;;;9.40;99.90;;;;;;5114685;28;20672;-71
2022/10/03 05:31:55;;;;;;;36.47;21.53;;;9.40;99.90;;;;;;5114732;28;20293;-72
2022/10/03 05:34:40;;;;;;;38.83;24.33;;;9.40;99.90;;;;;;5114878;28;20199;-72
2022/10/03 05:37:26;;;;;;;38.43;24.10;;;9.40;99.90;;;;;;5114600;28;20555;-71
2022/10/03 05:39:58;;;;;;;35.30;20.93;;;9.40;99.90;;;;;;5114718;28;20567;-72
2022/10/03 05:42:52;;;;;;;41.30;23.37;;;9.40;99.90;;;;;;5114437;28;20221;-72
2022/10/03 05:45:29;;;;;;;36.47;24.67;;;9.40;99.90;;;;;;5106212;28;20223;-72
2022/10/03 05:48:10;;;;;;;35.80;21.80;;;9.40;99.90;;;;;;5114431;28;20206;-72
2022/10/03 05:51:20;;;;;;;35.13;21.20;;;9.50;99.90;;;;;;5115612;28;20268;-72
2022/10/03 05:54:24;;;;;;;33.07;20.27;;;9.50;99.90;;;;;;5115308;28;20245;-71
2022/10/03 05:57:08;;;;;;;30.80;19.03;;;9.50;99.90;;;;;;5115648;28;20199;-72
2022/10/03 05:59:58;;;;;;;33.33;19.30;;;9.50;99.90;;;;;;5115192;28;20206;-72
2022/10/03 06:02:44;;;;;;;23.67;17.83;;;9.60;99.90;;;;;;5114262;27;20236;-72
2022/10/03 06:05:29;;;;;;;28.80;18.70;;;9.60;99.90;;;;;;5113998;28;20299;-72
2022/10/03 06:08:38;;;;;;;29.10;17.63;;;9.70;99.90;;;;;;5113955;28;20206;-73
2022/10/03 06:11:16;;;;;;;30.57;18.13;;;9.70;99.90;;;;;;5100971;28;20230;-72
2022/10/03 06:14:04;;;;;;;28.50;17.77;;;9.70;99.90;;;;;;5113628;28;20195;-73
2022/10/03 06:16:40;;;;;;;29.17;16.70;;;9.70;99.90;;;;;;5111300;28;20196;-72
2022/10/03 06:19:30;;;;;;;31.03;17.07;;;9.70;99.90;;;;;;5111306;28;20199;-72
2022/10/03 06:22:28;;;;;;;25.60;16.13;;;9.80;99.90;;;;;;5111039;28;20248;-72
2022/10/03 06:25:45;;;;;;;22.77;16.00;;;9.80;99.90;;;;;;5111184;28;20227;-72
2022/10/03 06:28:43;;;;;;;24.87;15.67;;;9.80;99.90;;;;;;5110591;28;20199;-72
2022/10/03 06:32:00;;;;;;;20.40;14.50;;;9.80;99.90;;;;;;5110953;28;20368;-72
2022/10/03 06:35:05;;;;;;;22.73;13.67;;;9.80;99.90;;;;;;5088832;28;20199;-72
2022/10/03 06:38:07;;;;;;;20.57;13.03;;;9.80;99.90;;;;;;5110980;28;20249;-74
2022/10/03 06:41:13;;;;;;;23.83;13.40;;;9.90;99.90;;;;;;5096998;28;20277;-73
2022/10/03 06:44:02;;;;;;;22.70;13.43;;;9.90;99.90;;;;;;5034927;28;20212;-73
2022/10/03 06:46:47;;;;;;;22.80;13.27;;;9.80;99.90;;;;;;5110909;28;20604;-73
2022/10/03 06:49:50;;;;;;;16.87;12.07;;;9.90;99.90;;;;;;5110610;28;20655;-73
2022/10/03 06:52:45;;;;;;;22.23;12.63;;;9.90;99.90;;;;;;5110466;28;20199;-73
2022/10/03 06:55:57;;;;;;;18.83;12.27;;;10.00;99.90;;;;;;5110717;28;20260;-73
2022/10/03 06:58:53;;;;;;;20.20;12.95;;;10.00;99.90;;;;;;5046486;28;20443;-73
2022/10/03 07:01:54;;;;;;;18.90;11.77;;;10.10;99.90;;;;;;5110804;28;20203;-74
2022/10/03 07:04:50;;;;;;;18.03;11.33;;;10.20;99.90;;;;;;5110273;28;20214;-73
2022/10/03 07:07:52;;;;;;;18.50;11.80;;;10.10;99.90;;;;;;5111683;28;20798;-73
2022/10/03 07:10:36;;;;;;;20.47;11.27;;;10.10;99.90;;;;;;5088301;28;20231;-74
2022/10/03 07:13:43;;;;;;;18.20;11.17;;;10.30;99.90;;;;;;5114957;28;20210;-73
2022/10/03 07:16:23;;;;;;;15.90;9.60;;;10.40;99.90;;;;;;5114232;28;20655;-73
2022/10/03 07:19:21;;;;;;;16.37;9.97;;;10.50;99.90;;;;;;5114777;28;20199;-73
2022/10/03 07:22:32;;;;;;;14.97;9.63;;;10.60;99.90;;;;;;5114660;28;20296;-73
2022/10/03 07:25:39;;;;;;;15.07;10.13;;;10.90;99.90;;;;;;5114518;28;20512;-73
2022/10/03 07:28:57;;;;;;;13.80;8.77;;;11.30;99.90;;;;;;5114169;28;20214;-73
2022/10/03 07:31:36;;;;;;;16.87;7.77;;;11.30;99.90;;;;;;5114386;28;20227;-73
2022/10/03 07:34:22;;;;;;;13.30;8.20;;;11.50;99.90;;;;;;5114199;28;20550;-73
2022/10/03 07:40:24;;;;;;;15.90;7.43;;;11.60;99.90;;;;;;5113891;28;20268;-74
2022/10/03 07:43:33;;;;;;;14.43;8.57;;;11.40;99.90;;;;;;5114245;28;20199;-74
2022/10/03 07:46:30;;;;;;;14.43;8.20;;;11.50;99.90;;;;;;5065540;28;20203;-74
2022/10/03 07:49:13;;;;;;;13.87;8.03;;;11.40;99.90;;;;;;5114117;28;20259;-75
2022/10/03 07:51:52;;;;;;;18.87;9.00;;;11.80;99.90;;;;;;5113935;27;20268;-75
2022/10/03 07:54:41;;;;;;;13.57;8.10;;;11.70;99.90;;;;;;5114238;28;20394;-75
2022/10/03 07:57:47;;;;;;;12.40;7.97;;;11.80;99.90;;;;;;5114191;28;20750;-76
2022/10/03 08:00:21;;;;;;;13.40;7.27;;;11.90;99.90;;;;;;5116417;28;20192;-76
2022/10/03 08:03:27;;;;;;;13.60;6.90;;;12.00;99.90;;;;;;5115543;28;20204;-76
2022/10/03 08:06:11;;;;;;;10.53;7.23;;;12.10;99.90;;;;;;5116183;28;20611;-76
2022/10/03 08:09:02;;;;;;;13.67;7.03;;;12.30;99.90;;;;;;5116431;28;20199;-76
2022/10/03 08:11:45;;;;;;;18.33;6.43;;;12.50;99.90;;;;;;5116234;28;20298;-75
2022/10/03 08:14:34;;;;;;;13.63;5.97;;;12.60;99.90;;;;;;5116195;28;20196;-75
2022/10/03 08:17:37;;;;;;;12.00;5.80;;;12.70;99.90;;;;;;5116243;28;20223;-75
2022/10/03 08:20:27;;;;;;;10.83;5.77;;;12.60;99.90;;;;;;5116201;28;20199;-76
2022/10/03 08:23:07;;;;;;;8.20;5.40;;;12.30;99.90;;;;;;5115818;28;20288;-75
2022/10/03 08:25:52;;;;;;;7.87;5.83;;;12.30;99.90;;;;;;5115860;28;20724;-75
2022/10/03 08:28:39;;;;;;;11.27;5.80;;;12.40;99.90;;;;;;5115900;28;20196;-75
2022/10/03 08:31:41;;;;;;;10.80;5.57;;;12.80;99.90;;;;;;5115800;28;20227;-75
2022/10/03 08:34:30;;;;;;;13.63;5.67;;;13.10;99.90;;;;;;5115857;28;20194;-75
2022/10/03 08:37:27;;;;;;;8.90;5.50;;;13.30;99.90;;;;;;5115644;28;20628;-76
2022/10/03 08:40:36;;;;;;;11.83;6.13;;;12.70;99.90;;;;;;5115812;28;20204;-75
2022/10/03 08:43:37;;;;;;;11.97;5.40;;;12.90;99.90;;;;;;5115713;28;20203;-76
2022/10/03 08:46:40;;;;;;;11.60;4.83;;;12.90;99.90;;;;;;5109599;28;20223;-75
2022/10/03 08:49:36;;;;;;;10.00;5.50;;;13.10;99.90;;;;;;5115471;28;20206;-75
2022/10/03 08:52:21;;;;;;;8.30;4.70;;;13.10;99.90;;;;;;5115246;28;20230;-75
2022/10/03 08:55:05;;;;;;;11.00;5.07;;;13.20;99.90;;;;;;5115523;28;20243;-75
2022/10/03 08:58:02;;;;;;;13.17;4.93;;;13.50;99.90;;;;;;5115443;28;20256;-75
2022/10/03 09:00:45;;;;;;;7.10;4.53;;;12.90;99.90;;;;;;5111997;28;20203;-75
2022/10/03 09:03:54;;;;;;;7.83;4.40;;;13.10;99.90;;;;;;5115483;28;20191;-75
2022/10/03 09:06:51;;;;;;;8.57;4.53;;;13.30;99.90;;;;;;5115147;28;20204;-75
2022/10/03 09:09:57;;;;;;;11.20;4.90;;;14.00;99.90;;;;;;5114923;28;20679;-75
2022/10/03 09:12:45;;;;;;;9.93;3.90;;;13.80;99.90;;;;;;5111807;28;20238;-75
2022/10/03 09:16:06;;;;;;;8.57;4.13;;;14.30;99.90;;;;;;5115137;28;20227;-76
2022/10/03 09:18:54;;;;;;;10.27;3.93;;;14.30;99.90;;;;;;5032283;28;20609;-76
2022/10/03 09:21:45;;;;;;;6.57;3.50;;;14.50;99.90;;;;;;5032156;28;20210;-76
2022/10/03 09:24:47;;;;;;;8.47;3.60;;;13.80;99.90;;;;;;5106128;28;20195;-76
2022/10/03 09:27:50;;;;;;;4.45;2.70;;;14.00;99.90;;;;;;5083514;28;20562;-75
2022/10/03 09:30:23;;;;;;;8.15;3.28;;;14.30;99.90;;;;;;5045289;28;20210;-76
2022/10/03 09:33:22;;;;;;;10.02;3.30;;;15.10;99.90;;;;;;5114626;28;20223;-75
2022/10/03 09:36:31;;;;;;;7.00;2.95;;;15.10;99.90;;;;;;5114545;28;20200;-75
2022/10/03 09:39:11;;;;;;;5.72;2.45;;;15.50;99.90;;;;;;5114111;28;20195;-75
2022/10/03 09:42:15;;;;;;;6.00;2.80;;;15.90;99.90;;;;;;5114385;28;20253;-76
2022/10/03 09:45:10;;;;;;;6.45;2.97;;;15.80;99.90;;;;;;5114636;28;20202;-75
2022/10/03 09:48:02;;;;;;;9.70;2.92;;;15.80;99.90;;;;;;5114380;28;20214;-75
2022/10/03 09:51:05;;;;;;;6.72;2.90;;;15.30;99.90;;;;;;5114258;28;20203;-75
2022/10/03 09:53:52;;;;;;;7.45;3.13;;;15.30;99.90;;;;;;5107542;28;20196;-75
2022/10/03 09:57:01;;;;;;;10.82;3.25;;;14.90;99.90;;;;;;5114321;28;20287;-75
2022/10/03 09:59:50;;;;;;;4.87;3.10;;;14.50;99.90;;;;;;5114240;28;20199;-75
2022/10/03 10:02:56;;;;;;;6.57;2.80;;;14.50;99.90;;;;;;5110778;28;20601;-76
2022/10/03 10:05:48;;;;;;;7.22;2.95;;;14.80;99.90;;;;;;5114135;28;20249;-75
2022/10/03 10:08:35;;;;;;;5.65;2.50;;;16.10;99.90;;;;;;5113776;28;20528;-75
2022/10/03 10:11:20;;;;;;;5.70;2.70;;;17.20;99.90;;;;;;5100427;28;20292;-75
2022/10/03 10:14:10;;;;;;;4.97;1.98;;;17.50;99.90;;;;;;5114272;28;20203;-75
2022/10/03 10:17:28;;;;;;;6.80;2.03;;;17.80;99.90;;;;;;5113857;28;20245;-75
2022/10/03 10:20:16;;;;;;;3.30;2.10;;;16.90;99.90;;;;;;5113692;28;20651;-75
2022/10/03 10:23:12;;;;;;;4.15;1.88;;;16.90;99.90;;;;;;5113812;28;20261;-75
2022/10/03 10:26:11;;;;;;;4.95;2.25;;;16.20;99.90;;;;;;5113643;28;20252;-76
2022/10/03 10:29:11;;;;;;;5.47;2.15;;;15.90;99.90;;;;;;5068795;28;20644;-76
2022/10/03 10:32:13;;;;;;;6.18;2.47;;;15.50;99.90;;;;;;5113424;28;20223;-76
2022/10/03 10:35:28;;;;;;;4.18;2.15;;;16.80;99.90;;;;;;5087427;28;20234;-75
2022/10/03 10:38:22;;;;;;;3.17;2.00;;;18.40;99.90;;;;;;5113469;28;20282;-76
2022/10/03 10:41:27;;;;;;;4.93;1.90;;;18.90;99.90;;;;;;5113640;28;20290;-76
2022/10/03 10:44:31;;;;;;;4.65;2.00;;;20.20;99.90;;;;;;5044501;28;20242;-76
2022/10/03 10:47:22;;;;;;;2.33;1.60;;;20.10;99.90;;;;;;5113708;28;20195;-76
2022/10/03 10:50:24;;;;;;;4.65;1.95;;;21.20;99.90;;;;;;5113348;28;20657;-76
2022/10/03 10:53:28;;;;;;;6.30;2.10;;;19.00;99.90;;;;;;5113109;28;20279;-74
2022/10/03 10:56:51;;;;;;;5.75;2.00;;;17.10;99.90;;;;;;5113438;28;20195;-75
2022/10/03 11:00:06;;;;;;;4.55;1.90;;;16.80;99.90;;;;;;5113146;28;20332;-75
2022/10/03 11:03:06;;;;;;;5.10;2.20;;;16.10;99.90;;;;;;5113409;28;20203;-75
2022/10/03 11:06:08;;;;;;;3.38;1.80;;;15.70;99.90;;;;;;5113408;28;20202;-75
2022/10/03 11:09:09;;;;;;;5.47;2.50;;;15.20;99.90;;;;;;5113207;28;20199;-74
2022/10/03 11:12:19;;;;;;;4.35;1.70;;;17.00;99.90;;;;;;5112919;28;20708;-75
2022/10/03 11:15:22;;;;;;;3.90;1.60;;;19.40;99.90;;;;;;5113280;28;20200;-75
2022/10/03 11:18:17;;;;;;;4.15;1.55;;;21.90;99.90;;;;;;5112832;28;20195;-75
2022/10/03 11:21:29;;;;;;;3.33;1.80;;;23.90;99.90;;;;;;5076434;28;20261;-75
2022/10/03 11:24:20;;;;;;;3.45;1.60;;;20.60;99.90;;;;;;5064554;28;20223;-75
2022/10/03 11:27:28;;;;;;;3.47;1.95;;;18.70;99.90;;;;;;5113075;28;20196;-74
2022/10/03 11:30:57;;;;;;;4.45;2.13;;;17.10;99.90;;;;;;5073752;28;20195;-75
2022/10/03 11:34:02;;;;;;;6.10;2.10;;;16.10;99.90;;;;;;5030057;28;20279;-74
2022/10/03 11:37:02;;;;;;;3.85;2.10;;;15.70;99.90;;;;;;5030059;28;20225;-75
2022/10/03 11:39:41;;;;;;;4.07;1.73;;;15.20;99.90;;;;;;5112917;28;20256;-75
2022/10/03 11:42:21;;;;;;;3.30;1.42;;;15.50;99.90;;;;;;5112796;28;20666;-75
2022/10/03 11:44:56;;;;;;;3.75;1.60;;;17.10;99.90;;;;;;5112952;28;20200;-75
2022/10/03 11:47:49;;;;;;;4.95;2.10;;;19.60;99.90;;;;;;5112960;28;20209;-75
2022/10/03 11:50:41;;;;;;;5.18;1.80;;;18.60;99.90;;;;;;5112976;28;20200;-75
2022/10/03 11:53:19;;;;;;;5.18;1.90;;;18.40;99.90;;;;;;5113661;28;20219;-75
2022/10/03 11:55:51;;;;;;;4.10;1.70;;;17.30;99.90;;;;;;5116644;28;20647;-75
2022/10/03 11:58:33;;;;;;;5.10;1.73;;;16.90;99.90;;;;;;5116775;28;20281;-76
2022/10/03 12:01:17;;;;;;;5.57;1.90;;;16.60;99.90;;;;;;5116871;28;20203;-76
2022/10/03 12:03:52;;;;;;;4.88;1.67;;;17.00;99.90;;;;;;5116217;28;20536;-76
2022/10/03 12:09:30;;;;;;;4.07;1.67;;;16.50;99.90;;;;;;5116197;28;20708;-76
2022/10/03 12:12:03;;;;;;;3.47;1.90;;;16.50;99.90;;;;;;5115990;28;20222;-76
2022/10/03 12:14:45;;;;;;;3.42;1.90;;;16.60;99.90;;;;;;5116074;28;20551;-76
2022/10/03 12:17:15;;;;;;;3.92;1.85;;;16.60;99.90;;;;;;5116099;28;20222;-76
2022/10/03 12:19:56;;;;;;;3.67;2.15;;;17.10;99.90;;;;;;5116110;28;20294;-76
2022/10/03 12:22:37;;;;;;;5.93;2.60;;;19.20;99.90;;;;;;5115796;28;20235;-76
2022/10/03 12:25:18;;;;;;;4.13;1.80;;;20.70;99.90;;;;;;5116095;28;20195;-76
2022/10/03 12:27:52;;;;;;;4.03;1.90;;;20.20;99.90;;;;;;5115896;28;20235;-76
2022/10/03 12:30:21;;;;;;;5.90;1.88;;;18.90;99.90;;;;;;5115894;28;20203;-76
2022/10/03 12:33:03;;;;;;;3.85;2.03;;;17.80;99.90;;;;;;5115557;28;20646;-76
2022/10/03 12:35:43;;;;;;;4.72;2.10;;;17.30;99.90;;;;;;5115759;28;20253;-76
2022/10/03 12:38:24;;;;;;;5.50;2.00;;;16.90;99.90;;;;;;5115579;28;20200;-76
2022/10/03 12:41:01;;;;;;;4.22;1.80;;;17.20;99.90;;;;;;5115447;28;20708;-76
2022/10/03 12:43:39;;;;;;;4.90;2.10;;;17.00;99.90;;;;;;5115061;28;20256;-76
2022/10/03 12:46:12;;;;;;;4.50;2.17;;;17.10;99.90;;;;;;5115461;28;20245;-76
2022/10/03 12:48:46;;;;;;;4.60;2.10;;;17.30;99.90;;;;;;5115427;28;20602;-76
2022/10/03 12:51:25;;;;;;;7.00;2.10;;;17.00;99.90;;;;;;5115439;28;20195;-76
2022/10/03 12:54:05;;;;;;;4.55;1.83;;;16.70;99.90;;;;;;5115132;28;20788;-76
2022/10/03 12:56:44;;;;;;;6.88;2.03;;;15.90;99.90;;;;;;5115251;28;20268;-76
2022/10/03 12:59:22;;;;;;;4.53;2.60;;;15.50;99.90;;;;;;5115242;28;20195;-76
2022/10/03 13:02:11;;;;;;;6.05;2.10;;;15.40;99.90;;;;;;5115040;28;20287;-76
2022/10/03 13:04:43;;;;;;;5.80;2.40;;;15.30;99.90;;;;;;5114329;28;20219;-76
2022/10/03 13:07:28;;;;;;;6.57;2.80;;;15.20;99.90;;;;;;5114988;28;20229;-76
2022/10/03 13:10:08;;;;;;;4.53;2.83;;;15.50;99.90;;;;;;5114856;28;20237;-76
2022/10/03 13:12:44;;;;;;;4.90;2.42;;;16.00;99.90;;;;;;5114732;28;20236;-76
2022/10/03 13:15:44;;;;;;;5.53;2.33;;;17.10;99.90;;;;;;5115002;28;20199;-76
2022/10/03 13:18:28;;;;;;;3.95;1.80;;;21.90;99.90;;;;;;5114749;28;20228;-76
2022/10/03 13:21:08;;;;;;;3.85;2.20;;;23.50;99.90;;;;;;5114778;28;20195;-76
2022/10/03 13:23:46;;;;;;;4.57;1.80;;;25.30;99.80;;;;;;5114713;28;20689;-76
2022/10/03 13:26:18;;;;;;;5.53;2.22;;;25.10;97.20;;;;;;5114491;28;20642;-76
2022/10/03 13:29:12;;;;;;;4.75;1.90;;;22.30;96.90;;;;;;5114760;28;20200;-76
2022/10/03 13:31:54;;;;;;;2.95;1.65;;;20.50;99.00;;;;;;5114472;28;20200;-76
2022/10/03 13:34:26;;;;;;;5.47;2.45;;;19.70;99.90;;;;;;5114444;28;20192;-76
2022/10/03 13:36:59;;;;;;;6.00;2.10;;;20.00;99.90;;;;;;5114512;28;20249;-75
2022/10/03 13:39:37;;;;;;;2.55;1.50;;;19.00;99.90;;;;;;5114404;28;20195;-76
2022/10/03 13:42:14;;;;;;;5.18;1.67;;;17.60;99.90;;;;;;5114384;28;20229;-76
2022/10/03 13:44:47;;;;;;;3.17;2.00;;;16.80;99.90;;;;;;5114305;28;20195;-76
2022/10/03 13:47:27;;;;;;;3.28;1.98;;;16.40;99.90;;;;;;5114234;28;20199;-76
2022/10/03 13:49:57;;;;;;;6.20;1.98;;;16.70;99.90;;;;;;5114032;28;20200;-76
2022/10/03 13:52:35;;;;;;;6.18;2.10;;;17.80;99.90;;;;;;5114061;28;20686;-76
2022/10/03 13:55:20;;;;;;;3.33;1.77;;;17.50;99.90;;;;;;5114202;28;20602;-75
2022/10/03 13:58:01;;;;;;;3.60;1.80;;;16.80;99.90;;;;;;5112209;28;20647;-76
2022/10/03 14:00:35;;;;;;;2.75;1.65;;;16.90;99.90;;;;;;5114140;28;20199;-75
2022/10/03 14:03:15;;;;;;;5.03;1.80;;;17.00;99.90;;;;;;5113836;28;20654;-76
2022/10/03 14:05:58;;;;;;;4.03;2.10;;;18.00;99.90;;;;;;5113836;28;20674;-76
2022/10/03 14:08:38;;;;;;;4.57;1.77;;;17.10;99.90;;;;;;5113942;28;20290;-76
2022/10/03 14:11:18;;;;;;;2.85;1.70;;;16.80;99.90;;;;;;5113995;28;20199;-76
2022/10/03 14:14:00;;;;;;;3.78;1.70;;;16.30;99.90;;;;;;5113804;28;20578;-75
2022/10/03 14:16:29;;;;;;;5.13;1.73;;;16.20;99.90;;;;;;5113920;28;20195;-76
2022/10/03 14:19:04;;;;;;;4.20;1.70;;;16.10;99.90;;;;;;5114009;28;20287;-76
2022/10/03 14:21:48;;;;;;;3.45;1.85;;;15.70;99.90;;;;;;5113706;28;20541;-76
2022/10/03 14:24:30;;;;;;;3.67;1.88;;;17.20;99.90;;;;;;5113788;28;20245;-76
2022/10/03 14:27:05;;;;;;;3.83;1.77;;;16.60;99.90;;;;;;5113688;28;20199;-76
2022/10/03 14:29:38;;;;;;;4.32;1.70;;;16.10;99.90;;;;;;5113581;28;20479;-76
2022/10/03 14:32:14;;;;;;;4.90;1.70;;;16.00;99.90;;;;;;5113539;28;20253;-76
2022/10/03 14:34:49;;;;;;;3.72;1.80;;;16.00;99.90;;;;;;5113449;28;20203;-76